Barney Turecamo — WDC6808 — position and weather

sailwx.info

Track history (hours):
 
Tides and Currents Weather Stations Pressure Air Temp Water Temp Dewpoint Dewpoint Depression Visibility Wind Speed Wind Dir Waves Ship Positions

Barney Turecamo

Owner: Moran Towing Corporation, New Canaan, CT. More information available from US FCC via Universal Licensing System and Coast Guard Vessel Documentation Center.

Last reported at 2017-Dec-11 16:39 UTC. Time now 2017-Dec-15 00:54 UTC.
Position N 40°38' W 074°12'.

Length 156 m; draft 7.5 m.

Type: . MMSI: 367061610.

Date/timePositionNaut miles runAvg speedWind from/ knotsBaromVisibWave heightAir tempDewpointWater temp
2017-Dec-11 16:39N 40°38' W 074°12'0 0.0
2017-Dec-11 16:24N 40°38' W 074°12'0 0.0
2017-Dec-11 15:57N 40°38' W 074°12'0 0.0
2017-Dec-11 15:27N 40°38' W 074°12'0 0.0
2017-Dec-11 14:42N 40°38' W 074°12'0 0.0
2017-Dec-11 14:30N 40°38' W 074°12'0 0.0
2017-Dec-11 14:00N 40°38' W 074°12'0 0.0
2017-Dec-11 13:24N 40°38' W 074°12'0 0.0
2017-Dec-11 12:57N 40°38' W 074°12'0 0.0
2017-Dec-11 12:24N 40°38' W 074°12'0 0.0
2017-Dec-11 11:57N 40°38' W 074°12'0 0.0
2017-Dec-11 11:30N 40°38' W 074°12'0 0.0
2017-Dec-11 10:57N 40°38' W 074°12'0 0.0
2017-Dec-11 10:30N 40°38' W 074°12'0 0.0
2017-Dec-11 09:48N 40°38' W 074°12'0 0.0
2017-Dec-11 09:27N 40°38' W 074°12'0 0.0
2017-Dec-11 09:00N 40°38' W 074°12'0 0.0
2017-Dec-11 08:15N 40°38' W 074°12'0 0.0
2017-Dec-11 07:54N 40°38' W 074°12'0 0.0
2017-Dec-11 07:30N 40°38' W 074°12'0 0.0
2017-Dec-11 07:00N 40°38' W 074°12'0 0.0
2017-Dec-11 06:15N 40°38' W 074°12'0 0.0
2017-Dec-11 05:57N 40°38' W 074°12'0 0.0
2017-Dec-11 05:27N 40°38' W 074°12'0 0.0
2017-Dec-11 04:57N 40°38' W 074°12'0 0.0
2017-Dec-11 04:27N 40°38' W 074°12'1 1.3
2017-Dec-11 04:00N 40°38' W 074°12'4 7.4
2017-Dec-11 03:30N 40°39' W 074°07'3 5.9
2017-Dec-11 02:58N 40°39' W 074°03'0 0.1
2017-Dec-11 02:28N 40°39' W 074°03'0 0.0
2017-Dec-11 01:59N 40°39' W 074°03'0 0.0
2017-Dec-11 01:28N 40°39' W 074°03'0 0.0
2017-Dec-11 00:58N 40°39' W 074°03'0 0.0
2017-Dec-11 00:28N 40°39' W 074°03'0 0.0
2017-Dec-11 00:00N 40°39' W 074°03'0 0.0
2017-Dec-10 23:30N 40°39' W 074°03'0 0.0
2017-Dec-10 23:00N 40°39' W 074°03'1 2.0
2017-Dec-10 22:30N 40°39' W 074°04'2 3.7
2017-Dec-10 21:55N 40°39' W 074°07'0 0.0
2017-Dec-10 21:25N 40°39' W 074°07'0 0.0
2017-Dec-10 20:55N 40°39' W 074°07'0 0.0
2017-Dec-10 20:25N 40°39' W 074°07'0 0.0
2017-Dec-10 19:55N 40°39' W 074°07'0 0.0
2017-Dec-10 19:25N 40°39' W 074°07'0 0.0
2017-Dec-10 18:58N 40°39' W 074°07'0 0.0
2017-Dec-10 18:28N 40°39' W 074°07'0 0.0
2017-Dec-10 17:55N 40°39' W 074°07'0 0.0
2017-Dec-10 17:28N 40°39' W 074°07'0 0.0
2017-Dec-10 16:55N 40°39' W 074°07'0 0.0
2017-Dec-10 16:25N 40°39' W 074°07'0 0.0
2017-Dec-10 15:58N 40°39' W 074°07'0 0.0
2017-Dec-10 15:28N 40°39' W 074°07'0 0.0
2017-Dec-10 14:58N 40°39' W 074°07'0 0.0
2017-Dec-10 14:28N 40°39' W 074°07'0 0.0
2017-Dec-10 13:58N 40°39' W 074°07'0 0.0
2017-Dec-10 13:28N 40°39' W 074°07'0 0.0
2017-Dec-10 12:58N 40°39' W 074°07'0 0.0
2017-Dec-10 12:28N 40°39' W 074°07'0 0.0
2017-Dec-10 11:58N 40°39' W 074°07'0 0.0
2017-Dec-10 11:28N 40°39' W 074°07'0 0.0
2017-Dec-10 10:58N 40°39' W 074°07'0 0.0
2017-Dec-10 10:28N 40°39' W 074°07'0 0.0
2017-Dec-10 09:58N 40°39' W 074°07'0 0.0
2017-Dec-10 09:28N 40°39' W 074°07'0 0.0
2017-Dec-10 08:58N 40°39' W 074°07'0 0.0
2017-Dec-10 08:28N 40°39' W 074°07'0 0.0
2017-Dec-10 07:58N 40°39' W 074°07'0 0.0
2017-Dec-10 07:28N 40°39' W 074°07'0 0.0
2017-Dec-10 06:58N 40°39' W 074°07'0 0.0
2017-Dec-10 06:28N 40°39' W 074°07'0 0.0
2017-Dec-10 05:58N 40°39' W 074°07'0 0.0
2017-Dec-10 05:28N 40°39' W 074°07'0 0.0
2017-Dec-10 04:55N 40°39' W 074°07'0 0.0
2017-Dec-10 04:28N 40°39' W 074°07'0 0.0
2017-Dec-10 03:58N 40°39' W 074°07'0 0.0
2017-Dec-10 03:28N 40°39' W 074°07'0 0.0
2017-Dec-10 02:58N 40°39' W 074°07'0 0.0
2017-Dec-10 02:30N 40°39' W 074°07'0 0.0
2017-Dec-10 02:00N 40°39' W 074°07'0 0.0
2017-Dec-10 01:30N 40°39' W 074°07'0 0.3
2017-Dec-10 01:00N 40°39' W 074°07'1 2.5
2017-Dec-10 00:30N 40°39' W 074°05'0 0.5
2017-Dec-10 00:00N 40°39' W 074°05'0 0.0
2017-Dec-09 23:30N 40°39' W 074°05'2 4.2
2017-Dec-09 22:59N 40°38' W 074°08'0 0.0
2017-Dec-09 22:29N 40°38' W 074°08'0 0.0
2017-Dec-09 21:59N 40°38' W 074°08'0 0.0
2017-Dec-09 20:59N 40°38' W 074°08'0 0.0
2017-Dec-09 20:29N 40°38' W 074°08'0 0.0
2017-Dec-09 19:59N 40°38' W 074°08'0 0.0
2017-Dec-09 19:29N 40°38' W 074°08'0 0.0
2017-Dec-09 18:59N 40°38' W 074°08'0 0.0
2017-Dec-09 18:29N 40°38' W 074°08'0 0.0
2017-Dec-09 17:59N 40°38' W 074°08'0 0.0
2017-Dec-09 17:29N 40°38' W 074°08'0 0.2
2017-Dec-09 17:00N 40°39' W 074°08'2 4.4
2017-Dec-09 16:31N 40°39' W 074°05'0 0.0
2017-Dec-09 16:00N 40°39' W 074°05'0 0.0
2017-Dec-09 15:24N 40°39' W 074°05'0 0.0
2017-Dec-09 15:00N 40°39' W 074°05'0 0.0
2017-Dec-09 14:27N 40°39' W 074°05'0 0.0
2017-Dec-09 14:00N 40°39' W 074°05'0 0.0
2017-Dec-09 13:30N 40°39' W 074°05'0 0.0
2017-Dec-09 13:00N 40°39' W 074°05'0 0.0
2017-Dec-09 12:30N 40°39' W 074°05'0 0.0
2017-Dec-09 12:00N 40°39' W 074°05'0 0.0
2017-Dec-09 11:30N 40°39' W 074°05'1 2.6
2017-Dec-09 11:00N 40°39' W 074°03'1 1.0
2017-Dec-09 10:28N 40°39' W 074°03'0 0.1
2017-Dec-09 09:58N 40°39' W 074°03'0 0.0
2017-Dec-09 09:28N 40°39' W 074°03'0 0.0
2017-Dec-09 08:58N 40°39' W 074°03'0 0.1
2017-Dec-09 08:28N 40°39' W 074°03'0 0.3
2017-Dec-09 07:58N 40°40' W 074°03'0 0.1
2017-Dec-09 07:28N 40°40' W 074°03'0 0.0
2017-Dec-09 06:58N 40°40' W 074°03'0 0.0
2017-Dec-09 06:28N 40°40' W 074°03'0 0.0
2017-Dec-09 05:58N 40°40' W 074°03'0 0.0
2017-Dec-09 05:28N 40°40' W 074°03'0 0.0
2017-Dec-09 04:58N 40°40' W 074°03'0 0.0
2017-Dec-09 04:28N 40°40' W 074°03'0 0.1
2017-Dec-09 04:00N 40°40' W 074°03'0 0.1
2017-Dec-09 03:30N 40°40' W 074°03'2 4.1
2017-Dec-09 03:00N 40°39' W 074°05'3 6.1
2017-Dec-09 02:30N 40°39' W 074°09'2 4.7
2017-Dec-09 01:59N 40°38' W 074°12'0 0.2
2017-Dec-09 01:30N 40°38' W 074°12'0 0.0
2017-Dec-09 00:58N 40°38' W 074°12'0 0.0
2017-Dec-09 00:22N 40°38' W 074°12'0 0.0
2017-Dec-08 23:58N 40°38' W 074°12'0 0.0
2017-Dec-08 23:28N 40°38' W 074°12'0 0.0
2017-Dec-08 22:55N 40°38' W 074°12'0 0.0
2017-Dec-08 21:52N 40°38' W 074°12'0 0.0
2017-Dec-08 21:22N 40°38' W 074°12'0 0.0
2017-Dec-08 20:58N 40°38' W 074°12'0 0.0
2017-Dec-08 20:25N 40°38' W 074°12'0 0.0
2017-Dec-08 19:55N 40°38' W 074°12'0 0.0
2017-Dec-08 19:25N 40°38' W 074°12'0 0.0
2017-Dec-08 18:46N 40°38' W 074°12'0 0.0
2017-Dec-08 18:22N 40°38' W 074°12'0 0.0
2017-Dec-08 17:58N 40°38' W 074°12'0 0.0
2017-Dec-08 17:25N 40°38' W 074°12'0 0.0
2017-Dec-08 16:16N 40°38' W 074°12'0 0.0
2017-Dec-08 15:58N 40°38' W 074°12'0 0.0
2017-Dec-08 13:52N 40°38' W 074°12'0 0.0
2017-Dec-08 13:22N 40°38' W 074°12'0 0.0
2017-Dec-08 12:28N 40°38' W 074°12'0 0.0
2017-Dec-08 11:52N 40°38' W 074°12'0 0.0
2017-Dec-08 11:19N 40°38' W 074°12'0 0.0
2017-Dec-08 10:43N 40°38' W 074°12'0 0.0
2017-Dec-08 10:13N 40°38' W 074°12'0 0.0
2017-Dec-08 09:49N 40°38' W 074°12'0 0.0
2017-Dec-08 09:19N 40°38' W 074°12'0 0.0
2017-Dec-08 08:49N 40°38' W 074°12'0 0.0
2017-Dec-08 08:25N 40°38' W 074°12'0 0.0
2017-Dec-08 07:58N 40°38' W 074°12'0 0.0
2017-Dec-08 07:25N 40°38' W 074°12'0 0.0
2017-Dec-08 06:49N 40°38' W 074°12'0 0.0
2017-Dec-08 06:28N 40°38' W 074°12'0 0.0
2017-Dec-08 05:52N 40°38' W 074°12'0 0.0
2017-Dec-08 05:25N 40°38' W 074°12'0 0.0
2017-Dec-08 04:16N 40°38' W 074°12'0 0.0
2017-Dec-08 01:55N 40°38' W 074°12'0 0.0
2017-Dec-08 01:19N 40°38' W 074°12'0 0.0
2017-Dec-08 00:49N 40°38' W 074°12'0 0.0
2017-Dec-08 00:13N 40°38' W 074°12'0 0.0
2017-Dec-07 23:49N 40°38' W 074°12'0 0.0
2017-Dec-07 23:13N 40°38' W 074°12'0 0.0
2017-Dec-07 22:49N 40°38' W 074°12'0 0.0
2017-Dec-07 18:26N 40°38' W 074°12'0 0.0
2017-Dec-07 17:54N 40°38' W 074°12'1 3.1
2017-Dec-07 17:30N 40°39' W 074°11'4 7.3
2017-Dec-07 16:59N 40°39' W 074°06'3 5.4
2017-Dec-07 16:30N 40°37' W 074°03'0 0.5
2017-Dec-07 16:00N 40°38' W 074°04'1 1.0
2017-Dec-07 15:30N 40°38' W 074°04'2 4.2
2017-Dec-07 15:00N 40°39' W 074°06'4 7.7
2017-Dec-07 14:30N 40°39' W 074°11'1 1.8
2017-Dec-07 14:00N 40°38' W 074°12'0 0.0
2017-Dec-07 13:30N 40°38' W 074°12'0 0.0
2017-Dec-07 11:50N 40°38' W 074°12'0 0.0
2017-Dec-07 10:35N 40°38' W 074°12'0 0.0
2017-Dec-07 10:29N 40°38' W 074°12'0 0.0
2017-Dec-07 09:53N 40°38' W 074°12'0 0.0
2017-Dec-07 09:23N 40°38' W 074°12'0 0.0
2017-Dec-07 08:59N 40°38' W 074°12'0 0.0
2017-Dec-07 08:29N 40°38' W 074°12'0 0.0
2017-Dec-07 07:59N 40°38' W 074°12'0 0.0
2017-Dec-07 07:17N 40°38' W 074°12'0 0.0
2017-Dec-07 06:59N 40°38' W 074°12'0 0.0
2017-Dec-07 06:23N 40°38' W 074°12'0 0.0
2017-Dec-07 05:53N 40°38' W 074°12'0 0.0
2017-Dec-07 05:23N 40°38' W 074°12'0 0.0
2017-Dec-07 04:59N 40°38' W 074°12'0 0.0
2017-Dec-07 04:20N 40°38' W 074°12'0 0.0
2017-Dec-07 03:53N 40°38' W 074°12'0 0.0
2017-Dec-07 03:29N 40°38' W 074°12'0 0.0
2017-Dec-07 02:47N 40°38' W 074°12'0 0.0
2017-Dec-07 02:29N 40°38' W 074°12'0 0.0
2017-Dec-07 01:59N 40°38' W 074°12'0 0.0
2017-Dec-07 01:23N 40°38' W 074°12'0 0.0
2017-Dec-07 00:44N 40°38' W 074°12'0 0.1
2017-Dec-07 00:30N 40°38' W 074°12'2 4.1
2017-Dec-07 00:00N 40°39' W 074°10'3 6.0
2017-Dec-06 23:30N 40°39' W 074°06'2 3.9
2017-Dec-06 22:56N 40°39' W 074°03'0 0.0
2017-Dec-06 22:29N 40°39' W 074°03'0 0.0
2017-Dec-06 21:59N 40°39' W 074°03'0 0.0
2017-Dec-06 21:29N 40°39' W 074°03'0 0.0
2017-Dec-06 20:59N 40°39' W 074°03'  
2017-Dec-04 10:28N 40°39' W 074°05'0 0.0
2017-Dec-04 09:58N 40°39' W 074°05'0 0.0
2017-Dec-04 09:28N 40°39' W 074°05'0 0.0
2017-Dec-04 08:58N 40°39' W 074°05'0 0.0
2017-Dec-04 08:28N 40°39' W 074°05'0 0.0
2017-Dec-04 07:58N 40°39' W 074°05'0 0.0
2017-Dec-04 07:28N 40°39' W 074°05'0 0.0
2017-Dec-04 06:58N 40°39' W 074°05'0 0.0
2017-Dec-04 06:28N 40°39' W 074°05'0 0.0
2017-Dec-04 05:58N 40°39' W 074°05'0 0.0
2017-Dec-04 05:28N 40°39' W 074°05'0 0.0
2017-Dec-04 04:58N 40°39' W 074°05'0 0.0
2017-Dec-04 04:28N 40°39' W 074°05'0 0.0
2017-Dec-04 03:58N 40°39' W 074°05'0 0.0
2017-Dec-04 03:28N 40°39' W 074°05'0 0.0
2017-Dec-04 02:58N 40°39' W 074°05'0 0.0
2017-Dec-04 02:28N 40°39' W 074°05'0 0.0
2017-Dec-04 01:58N 40°39' W 074°05'0 0.0
2017-Dec-04 01:28N 40°39' W 074°05'0 0.0
2017-Dec-04 00:58N 40°39' W 074°05'0 0.0
2017-Dec-04 00:28N 40°39' W 074°05'0 0.0
2017-Dec-03 23:58N 40°39' W 074°05'0 0.0
2017-Dec-03 23:28N 40°39' W 074°05'0 0.0
2017-Dec-03 22:58N 40°39' W 074°05'0 0.0
2017-Dec-03 22:28N 40°39' W 074°05'2 3.7
2017-Dec-03 22:00N 40°39' W 074°07'0 0.7
2017-Dec-03 21:23N 40°38' W 074°08'0 0.0
2017-Dec-03 20:53N 40°38' W 074°08'0 0.0
2017-Dec-03 19:27N 40°38' W 074°08'2 5.0
2017-Dec-03 19:00N 40°39' W 074°05'0 0.1
2017-Dec-03 18:30N 40°39' W 074°05'2 3.6
2017-Dec-03 18:00N 40°38' W 074°03'1 1.2
2017-Dec-03 17:30N 40°37' W 074°03'0 0.9
2017-Dec-03 17:00N 40°37' W 074°03'0 0.7
2017-Dec-03 16:30N 40°38' W 074°03'0 0.3
2017-Dec-03 16:00N 40°37' W 074°04'2 4.5
2017-Dec-03 15:30N 40°39' W 074°06'4 7.2
2017-Dec-03 15:00N 40°39' W 074°11'2 3.2
2017-Dec-03 14:30N 40°38' W 074°12'0 0.0
2017-Dec-03 13:55N 40°38' W 074°12'0 0.0
2017-Dec-03 12:52N 40°38' W 074°12'0 0.0
2017-Dec-03 12:25N 40°38' W 074°12'0 0.0
2017-Dec-03 11:58N 40°38' W 074°12'0 0.0
2017-Dec-03 11:28N 40°38' W 074°12'0 0.0
2017-Dec-03 10:55N 40°38' W 074°12'0 0.0
2017-Dec-03 10:25N 40°38' W 074°12'0 0.0
2017-Dec-03 09:55N 40°38' W 074°12'0 0.0
2017-Dec-03 09:28N 40°38' W 074°12'0 0.0
2017-Dec-03 08:58N 40°38' W 074°12'0 0.0
2017-Dec-03 08:28N 40°38' W 074°12'0 0.0
2017-Dec-03 07:58N 40°38' W 074°12'0 0.0
2017-Dec-03 07:28N 40°38' W 074°12'0 0.0
2017-Dec-03 06:22N 40°38' W 074°12'0 0.0
2017-Dec-03 05:58N 40°38' W 074°12'0 0.0
2017-Dec-03 05:28N 40°38' W 074°12'0 0.0
2017-Dec-03 04:52N 40°38' W 074°12'0 0.0
2017-Dec-03 04:16N 40°38' W 074°12'0 0.0
2017-Dec-03 03:46N 40°38' W 074°12'0 0.0
2017-Dec-03 03:22N 40°38' W 074°12'0 0.0
2017-Dec-03 02:10N 40°38' W 074°12'0 0.0
2017-Dec-03 01:46N 40°38' W 074°12'0 0.0
2017-Dec-03 01:16N 40°38' W 074°12'0 0.0
2017-Dec-03 00:58N 40°38' W 074°12'0 0.0
2017-Dec-03 00:28N 40°38' W 074°12'0 0.0
2017-Dec-02 23:58N 40°38' W 074°12'0 0.0
2017-Dec-02 23:19N 40°38' W 074°12'0 0.0
2017-Dec-02 22:55N 40°38' W 074°12'0 0.0
2017-Dec-02 21:46N 40°38' W 074°12'0 0.0
2017-Dec-02 21:04N 40°38' W 074°12'0 0.0
2017-Dec-02 20:58N 40°38' W 074°12'0 0.0
2017-Dec-02 20:22N 40°38' W 074°12'0 0.0
2017-Dec-02 19:52N 40°38' W 074°12'0 0.0
2017-Dec-02 18:55N 40°38' W 074°12'0 0.0
2017-Dec-02 18:25N 40°38' W 074°12'0 0.0
2017-Dec-02 17:52N 40°38' W 074°12'0 0.0
2017-Dec-02 16:58N 40°38' W 074°12'0 0.0
2017-Dec-02 16:28N 40°38' W 074°12'0 0.0
2017-Dec-02 15:58N 40°38' W 074°12'0 0.0
2017-Dec-02 15:16N 40°38' W 074°12'0 0.0
2017-Dec-02 14:46N 40°38' W 074°12'0 0.0
2017-Dec-02 14:16N 40°38' W 074°12'0 0.0
2017-Dec-02 13:52N 40°38' W 074°12'0 0.0
2017-Dec-02 13:10N 40°38' W 074°12'0 0.0
2017-Dec-02 12:58N 40°38' W 074°12'0 0.0
2017-Dec-02 12:22N 40°38' W 074°12'0 0.0
2017-Dec-02 11:19N 40°38' W 074°12'0 0.0
2017-Dec-02 10:55N 40°38' W 074°12'0 0.0
2017-Dec-02 10:28N 40°38' W 074°12'0 0.0
2017-Dec-02 09:55N 40°38' W 074°12'0 0.0
2017-Dec-02 09:28N 40°38' W 074°12'0 0.0
2017-Dec-02 08:58N 40°38' W 074°12'0 0.0
2017-Dec-02 08:28N 40°38' W 074°12'0 0.0
2017-Dec-02 08:00N 40°38' W 074°12'0 0.7
2017-Dec-02 07:31N 40°38' W 074°12'2 3.6
2017-Dec-02 07:00N 40°39' W 074°10'4 7.2
2017-Dec-02 06:30N 40°39' W 074°05'2 4.7
2017-Dec-02 06:00N 40°37' W 074°03'2 4.8
2017-Dec-02 05:30N 40°35' W 074°01'0 0.1
2017-Dec-02 04:46N 40°35' W 074°01'0 0.0
2017-Dec-02 04:28N 40°35' W 074°01'0 0.0
2017-Dec-02 03:58N 40°35' W 074°01'0 0.0
2017-Dec-02 03:19N 40°35' W 074°01'0 0.0
2017-Dec-02 02:55N 40°35' W 074°01'0 0.0
2017-Dec-02 02:28N 40°35' W 074°01'0 0.0
2017-Dec-02 01:46N 40°35' W 074°01'0 0.0
2017-Dec-02 01:28N 40°35' W 074°01'0 0.0
2017-Dec-02 00:58N 40°35' W 074°01'0 0.0
2017-Dec-02 00:28N 40°35' W 074°01'0 0.0
2017-Dec-01 23:55N 40°35' W 074°01'0 0.1
2017-Dec-01 23:28N 40°35' W 074°01'0 0.0
2017-Dec-01 22:58N 40°35' W 074°01'0 0.0
2017-Dec-01 22:22N 40°35' W 074°01'0 0.0
2017-Dec-01 21:49N 40°35' W 074°01'0 0.1
2017-Dec-01 21:28N 40°35' W 074°01'0 0.1
2017-Dec-01 20:16N 40°35' W 074°01'0 0.1
2017-Dec-01 19:49N 40°35' W 074°01'0 0.0
2017-Dec-01 19:19N 40°35' W 074°01'0 0.0
2017-Dec-01 18:52N 40°35' W 074°01'0 0.0
2017-Dec-01 18:28N 40°35' W 074°01'0 0.0
2017-Dec-01 17:52N 40°35' W 074°01'0 0.0
2017-Dec-01 17:28N 40°35' W 074°01'0 0.0
2017-Dec-01 16:49N 40°35' W 074°01'  
Track history (hours):
 
Tides and Currents Weather Stations Pressure Air Temp Water Temp Dewpoint Dewpoint Depression Visibility Wind Speed Wind Dir Waves Ship Positions

Barney Turecamo

Owner: Moran Towing Corporation, New Canaan, CT. More information available from US FCC via Universal Licensing System and Coast Guard Vessel Documentation Center.

Last reported at 2017-Dec-11 16:39 UTC. Time now 2017-Dec-15 00:54 UTC.
Position N 40°38' W 074°12'.

Length 156 m; draft 7.5 m.

Type: . MMSI: 367061610.

Date/timePositionNaut miles runAvg speedWind from/ knotsBaromVisibWave heightAir tempDewpointWater temp
2017-Dec-11 16:39N 40°38' W 074°12'0 0.0
2017-Dec-11 16:24N 40°38' W 074°12'0 0.0
2017-Dec-11 15:57N 40°38' W 074°12'0 0.0
2017-Dec-11 15:27N 40°38' W 074°12'0 0.0
2017-Dec-11 14:42N 40°38' W 074°12'0 0.0
2017-Dec-11 14:30N 40°38' W 074°12'0 0.0
2017-Dec-11 14:00N 40°38' W 074°12'0 0.0
2017-Dec-11 13:24N 40°38' W 074°12'0 0.0
2017-Dec-11 12:57N 40°38' W 074°12'0 0.0
2017-Dec-11 12:24N 40°38' W 074°12'0 0.0
2017-Dec-11 11:57N 40°38' W 074°12'0 0.0
2017-Dec-11 11:30N 40°38' W 074°12'0 0.0
2017-Dec-11 10:57N 40°38' W 074°12'0 0.0
2017-Dec-11 10:30N 40°38' W 074°12'0 0.0
2017-Dec-11 09:48N 40°38' W 074°12'0 0.0
2017-Dec-11 09:27N 40°38' W 074°12'0 0.0
2017-Dec-11 09:00N 40°38' W 074°12'0 0.0
2017-Dec-11 08:15N 40°38' W 074°12'0 0.0
2017-Dec-11 07:54N 40°38' W 074°12'0 0.0
2017-Dec-11 07:30N 40°38' W 074°12'0 0.0
2017-Dec-11 07:00N 40°38' W 074°12'0 0.0
2017-Dec-11 06:15N 40°38' W 074°12'0 0.0
2017-Dec-11 05:57N 40°38' W 074°12'0 0.0
2017-Dec-11 05:27N 40°38' W 074°12'0 0.0
2017-Dec-11 04:57N 40°38' W 074°12'0 0.0
2017-Dec-11 04:27N 40°38' W 074°12'1 1.3
2017-Dec-11 04:00N 40°38' W 074°12'4 7.4
2017-Dec-11 03:30N 40°39' W 074°07'3 5.9
2017-Dec-11 02:58N 40°39' W 074°03'0 0.1
2017-Dec-11 02:28N 40°39' W 074°03'0 0.0
2017-Dec-11 01:59N 40°39' W 074°03'0 0.0
2017-Dec-11 01:28N 40°39' W 074°03'0 0.0
2017-Dec-11 00:58N 40°39' W 074°03'0 0.0
2017-Dec-11 00:28N 40°39' W 074°03'0 0.0
2017-Dec-11 00:00N 40°39' W 074°03'0 0.0
2017-Dec-10 23:30N 40°39' W 074°03'0 0.0
2017-Dec-10 23:00N 40°39' W 074°03'1 2.0
2017-Dec-10 22:30N 40°39' W 074°04'2 3.7
2017-Dec-10 21:55N 40°39' W 074°07'0 0.0
2017-Dec-10 21:25N 40°39' W 074°07'0 0.0
2017-Dec-10 20:55N 40°39' W 074°07'0 0.0
2017-Dec-10 20:25N 40°39' W 074°07'0 0.0
2017-Dec-10 19:55N 40°39' W 074°07'0 0.0
2017-Dec-10 19:25N 40°39' W 074°07'0 0.0
2017-Dec-10 18:58N 40°39' W 074°07'0 0.0
2017-Dec-10 18:28N 40°39' W 074°07'0 0.0
2017-Dec-10 17:55N 40°39' W 074°07'0 0.0
2017-Dec-10 17:28N 40°39' W 074°07'0 0.0
2017-Dec-10 16:55N 40°39' W 074°07'0 0.0
2017-Dec-10 16:25N 40°39' W 074°07'0 0.0
2017-Dec-10 15:58N 40°39' W 074°07'0 0.0
2017-Dec-10 15:28N 40°39' W 074°07'0 0.0
2017-Dec-10 14:58N 40°39' W 074°07'0 0.0
2017-Dec-10 14:28N 40°39' W 074°07'0 0.0
2017-Dec-10 13:58N 40°39' W 074°07'0 0.0
2017-Dec-10 13:28N 40°39' W 074°07'0 0.0
2017-Dec-10 12:58N 40°39' W 074°07'0 0.0
2017-Dec-10 12:28N 40°39' W 074°07'0 0.0
2017-Dec-10 11:58N 40°39' W 074°07'0 0.0
2017-Dec-10 11:28N 40°39' W 074°07'0 0.0
2017-Dec-10 10:58N 40°39' W 074°07'0 0.0
2017-Dec-10 10:28N 40°39' W 074°07'0 0.0
2017-Dec-10 09:58N 40°39' W 074°07'0 0.0
2017-Dec-10 09:28N 40°39' W 074°07'0 0.0
2017-Dec-10 08:58N 40°39' W 074°07'0 0.0
2017-Dec-10 08:28N 40°39' W 074°07'0 0.0
2017-Dec-10 07:58N 40°39' W 074°07'0 0.0
2017-Dec-10 07:28N 40°39' W 074°07'0 0.0
2017-Dec-10 06:58N 40°39' W 074°07'0 0.0
2017-Dec-10 06:28N 40°39' W 074°07'0 0.0
2017-Dec-10 05:58N 40°39' W 074°07'0 0.0
2017-Dec-10 05:28N 40°39' W 074°07'0 0.0
2017-Dec-10 04:55N 40°39' W 074°07'0 0.0
2017-Dec-10 04:28N 40°39' W 074°07'0 0.0
2017-Dec-10 03:58N 40°39' W 074°07'0 0.0
2017-Dec-10 03:28N 40°39' W 074°07'0 0.0
2017-Dec-10 02:58N 40°39' W 074°07'0 0.0
2017-Dec-10 02:30N 40°39' W 074°07'0 0.0
2017-Dec-10 02:00N 40°39' W 074°07'0 0.0
2017-Dec-10 01:30N 40°39' W 074°07'0 0.3
2017-Dec-10 01:00N 40°39' W 074°07'1 2.5
2017-Dec-10 00:30N 40°39' W 074°05'0 0.5
2017-Dec-10 00:00N 40°39' W 074°05'0 0.0
2017-Dec-09 23:30N 40°39' W 074°05'2 4.2
2017-Dec-09 22:59N 40°38' W 074°08'0 0.0
2017-Dec-09 22:29N 40°38' W 074°08'0 0.0
2017-Dec-09 21:59N 40°38' W 074°08'0 0.0
2017-Dec-09 20:59N 40°38' W 074°08'0 0.0
2017-Dec-09 20:29N 40°38' W 074°08'0 0.0
2017-Dec-09 19:59N 40°38' W 074°08'0 0.0
2017-Dec-09 19:29N 40°38' W 074°08'0 0.0
2017-Dec-09 18:59N 40°38' W 074°08'0 0.0
2017-Dec-09 18:29N 40°38' W 074°08'0 0.0
2017-Dec-09 17:59N 40°38' W 074°08'0 0.0
2017-Dec-09 17:29N 40°38' W 074°08'0 0.2
2017-Dec-09 17:00N 40°39' W 074°08'2 4.4
2017-Dec-09 16:31N 40°39' W 074°05'0 0.0
2017-Dec-09 16:00N 40°39' W 074°05'0 0.0
2017-Dec-09 15:24N 40°39' W 074°05'0 0.0
2017-Dec-09 15:00N 40°39' W 074°05'0 0.0
2017-Dec-09 14:27N 40°39' W 074°05'0 0.0
2017-Dec-09 14:00N 40°39' W 074°05'0 0.0
2017-Dec-09 13:30N 40°39' W 074°05'0 0.0
2017-Dec-09 13:00N 40°39' W 074°05'0 0.0
2017-Dec-09 12:30N 40°39' W 074°05'0 0.0
2017-Dec-09 12:00N 40°39' W 074°05'0 0.0
2017-Dec-09 11:30N 40°39' W 074°05'1 2.6
2017-Dec-09 11:00N 40°39' W 074°03'1 1.0
2017-Dec-09 10:28N 40°39' W 074°03'0 0.1
2017-Dec-09 09:58N 40°39' W 074°03'0 0.0
2017-Dec-09 09:28N 40°39' W 074°03'0 0.0
2017-Dec-09 08:58N 40°39' W 074°03'0 0.1
2017-Dec-09 08:28N 40°39' W 074°03'0 0.3
2017-Dec-09 07:58N 40°40' W 074°03'0 0.1
2017-Dec-09 07:28N 40°40' W 074°03'0 0.0
2017-Dec-09 06:58N 40°40' W 074°03'0 0.0
2017-Dec-09 06:28N 40°40' W 074°03'0 0.0
2017-Dec-09 05:58N 40°40' W 074°03'0 0.0
2017-Dec-09 05:28N 40°40' W 074°03'0 0.0
2017-Dec-09 04:58N 40°40' W 074°03'0 0.0
2017-Dec-09 04:28N 40°40' W 074°03'0 0.1
2017-Dec-09 04:00N 40°40' W 074°03'0 0.1
2017-Dec-09 03:30N 40°40' W 074°03'2 4.1
2017-Dec-09 03:00N 40°39' W 074°05'3 6.1
2017-Dec-09 02:30N 40°39' W 074°09'2 4.7
2017-Dec-09 01:59N 40°38' W 074°12'0 0.2
2017-Dec-09 01:30N 40°38' W 074°12'0 0.0
2017-Dec-09 00:58N 40°38' W 074°12'0 0.0
2017-Dec-09 00:22N 40°38' W 074°12'0 0.0
2017-Dec-08 23:58N 40°38' W 074°12'0 0.0
2017-Dec-08 23:28N 40°38' W 074°12'0 0.0
2017-Dec-08 22:55N 40°38' W 074°12'0 0.0
2017-Dec-08 21:52N 40°38' W 074°12'0 0.0
2017-Dec-08 21:22N 40°38' W 074°12'0 0.0
2017-Dec-08 20:58N 40°38' W 074°12'0 0.0
2017-Dec-08 20:25N 40°38' W 074°12'0 0.0
2017-Dec-08 19:55N 40°38' W 074°12'0 0.0
2017-Dec-08 19:25N 40°38' W 074°12'0 0.0
2017-Dec-08 18:46N 40°38' W 074°12'0 0.0
2017-Dec-08 18:22N 40°38' W 074°12'0 0.0
2017-Dec-08 17:58N 40°38' W 074°12'0 0.0
2017-Dec-08 17:25N 40°38' W 074°12'0 0.0
2017-Dec-08 16:16N 40°38' W 074°12'0 0.0
2017-Dec-08 15:58N 40°38' W 074°12'0 0.0
2017-Dec-08 13:52N 40°38' W 074°12'0 0.0
2017-Dec-08 13:22N 40°38' W 074°12'0 0.0
2017-Dec-08 12:28N 40°38' W 074°12'0 0.0
2017-Dec-08 11:52N 40°38' W 074°12'0 0.0
2017-Dec-08 11:19N 40°38' W 074°12'0 0.0
2017-Dec-08 10:43N 40°38' W 074°12'0 0.0
2017-Dec-08 10:13N 40°38' W 074°12'0 0.0
2017-Dec-08 09:49N 40°38' W 074°12'0 0.0
2017-Dec-08 09:19N 40°38' W 074°12'0 0.0
2017-Dec-08 08:49N 40°38' W 074°12'0 0.0
2017-Dec-08 08:25N 40°38' W 074°12'0 0.0
2017-Dec-08 07:58N 40°38' W 074°12'0 0.0
2017-Dec-08 07:25N 40°38' W 074°12'0 0.0
2017-Dec-08 06:49N 40°38' W 074°12'0 0.0
2017-Dec-08 06:28N 40°38' W 074°12'0 0.0
2017-Dec-08 05:52N 40°38' W 074°12'0 0.0
2017-Dec-08 05:25N 40°38' W 074°12'0 0.0
2017-Dec-08 04:16N 40°38' W 074°12'0 0.0
2017-Dec-08 01:55N 40°38' W 074°12'0 0.0
2017-Dec-08 01:19N 40°38' W 074°12'0 0.0
2017-Dec-08 00:49N 40°38' W 074°12'0 0.0
2017-Dec-08 00:13N 40°38' W 074°12'0 0.0
2017-Dec-07 23:49N 40°38' W 074°12'0 0.0
2017-Dec-07 23:13N 40°38' W 074°12'0 0.0
2017-Dec-07 22:49N 40°38' W 074°12'0 0.0
2017-Dec-07 18:26N 40°38' W 074°12'0 0.0
2017-Dec-07 17:54N 40°38' W 074°12'1 3.1
2017-Dec-07 17:30N 40°39' W 074°11'4 7.3
2017-Dec-07 16:59N 40°39' W 074°06'3 5.4
2017-Dec-07 16:30N 40°37' W 074°03'0 0.5
2017-Dec-07 16:00N 40°38' W 074°04'1 1.0
2017-Dec-07 15:30N 40°38' W 074°04'2 4.2
2017-Dec-07 15:00N 40°39' W 074°06'4 7.7
2017-Dec-07 14:30N 40°39' W 074°11'1 1.8
2017-Dec-07 14:00N 40°38' W 074°12'0 0.0
2017-Dec-07 13:30N 40°38' W 074°12'0 0.0
2017-Dec-07 11:50N 40°38' W 074°12'0 0.0
2017-Dec-07 10:35N 40°38' W 074°12'0 0.0
2017-Dec-07 10:29N 40°38' W 074°12'0 0.0
2017-Dec-07 09:53N 40°38' W 074°12'0 0.0
2017-Dec-07 09:23N 40°38' W 074°12'0 0.0
2017-Dec-07 08:59N 40°38' W 074°12'0 0.0
2017-Dec-07 08:29N 40°38' W 074°12'0 0.0
2017-Dec-07 07:59N 40°38' W 074°12'0 0.0
2017-Dec-07 07:17N 40°38' W 074°12'0 0.0
2017-Dec-07 06:59N 40°38' W 074°12'0 0.0
2017-Dec-07 06:23N 40°38' W 074°12'0 0.0
2017-Dec-07 05:53N 40°38' W 074°12'0 0.0
2017-Dec-07 05:23N 40°38' W 074°12'0 0.0
2017-Dec-07 04:59N 40°38' W 074°12'0 0.0
2017-Dec-07 04:20N 40°38' W 074°12'0 0.0
2017-Dec-07 03:53N 40°38' W 074°12'0 0.0
2017-Dec-07 03:29N 40°38' W 074°12'0 0.0
2017-Dec-07 02:47N 40°38' W 074°12'0 0.0
2017-Dec-07 02:29N 40°38' W 074°12'0 0.0
2017-Dec-07 01:59N 40°38' W 074°12'0 0.0
2017-Dec-07 01:23N 40°38' W 074°12'0 0.0
2017-Dec-07 00:44N 40°38' W 074°12'0 0.1
2017-Dec-07 00:30N 40°38' W 074°12'2 4.1
2017-Dec-07 00:00N 40°39' W 074°10'3 6.0
2017-Dec-06 23:30N 40°39' W 074°06'2 3.9
2017-Dec-06 22:56N 40°39' W 074°03'0 0.0
2017-Dec-06 22:29N 40°39' W 074°03'0 0.0
2017-Dec-06 21:59N 40°39' W 074°03'0 0.0
2017-Dec-06 21:29N 40°39' W 074°03'0 0.0
2017-Dec-06 20:59N 40°39' W 074°03'  
2017-Dec-04 10:28N 40°39' W 074°05'0 0.0
2017-Dec-04 09:58N 40°39' W 074°05'0 0.0
2017-Dec-04 09:28N 40°39' W 074°05'0 0.0
2017-Dec-04 08:58N 40°39' W 074°05'0 0.0
2017-Dec-04 08:28N 40°39' W 074°05'0 0.0
2017-Dec-04 07:58N 40°39' W 074°05'0 0.0
2017-Dec-04 07:28N 40°39' W 074°05'0 0.0
2017-Dec-04 06:58N 40°39' W 074°05'0 0.0
2017-Dec-04 06:28N 40°39' W 074°05'0 0.0
2017-Dec-04 05:58N 40°39' W 074°05'0 0.0
2017-Dec-04 05:28N 40°39' W 074°05'0 0.0
2017-Dec-04 04:58N 40°39' W 074°05'0 0.0
2017-Dec-04 04:28N 40°39' W 074°05'0 0.0
2017-Dec-04 03:58N 40°39' W 074°05'0 0.0
2017-Dec-04 03:28N 40°39' W 074°05'0 0.0
2017-Dec-04 02:58N 40°39' W 074°05'0 0.0
2017-Dec-04 02:28N 40°39' W 074°05'0 0.0
2017-Dec-04 01:58N 40°39' W 074°05'0 0.0
2017-Dec-04 01:28N 40°39' W 074°05'0 0.0
2017-Dec-04 00:58N 40°39' W 074°05'0 0.0
2017-Dec-04 00:28N 40°39' W 074°05'0 0.0
2017-Dec-03 23:58N 40°39' W 074°05'0 0.0
2017-Dec-03 23:28N 40°39' W 074°05'0 0.0
2017-Dec-03 22:58N 40°39' W 074°05'0 0.0
2017-Dec-03 22:28N 40°39' W 074°05'2 3.7
2017-Dec-03 22:00N 40°39' W 074°07'0 0.7
2017-Dec-03 21:23N 40°38' W 074°08'0 0.0
2017-Dec-03 20:53N 40°38' W 074°08'0 0.0
2017-Dec-03 19:27N 40°38' W 074°08'2 5.0
2017-Dec-03 19:00N 40°39' W 074°05'0 0.1
2017-Dec-03 18:30N 40°39' W 074°05'2 3.6
2017-Dec-03 18:00N 40°38' W 074°03'1 1.2
2017-Dec-03 17:30N 40°37' W 074°03'0 0.9
2017-Dec-03 17:00N 40°37' W 074°03'0 0.7
2017-Dec-03 16:30N 40°38' W 074°03'0 0.3
2017-Dec-03 16:00N 40°37' W 074°04'2 4.5
2017-Dec-03 15:30N 40°39' W 074°06'4 7.2
2017-Dec-03 15:00N 40°39' W 074°11'2 3.2
2017-Dec-03 14:30N 40°38' W 074°12'0 0.0
2017-Dec-03 13:55N 40°38' W 074°12'0 0.0
2017-Dec-03 12:52N 40°38' W 074°12'0 0.0
2017-Dec-03 12:25N 40°38' W 074°12'0 0.0
2017-Dec-03 11:58N 40°38' W 074°12'0 0.0
2017-Dec-03 11:28N 40°38' W 074°12'0 0.0
2017-Dec-03 10:55N 40°38' W 074°12'0 0.0
2017-Dec-03 10:25N 40°38' W 074°12'0 0.0
2017-Dec-03 09:55N 40°38' W 074°12'0 0.0
2017-Dec-03 09:28N 40°38' W 074°12'0 0.0
2017-Dec-03 08:58N 40°38' W 074°12'0 0.0
2017-Dec-03 08:28N 40°38' W 074°12'0 0.0
2017-Dec-03 07:58N 40°38' W 074°12'0 0.0
2017-Dec-03 07:28N 40°38' W 074°12'0 0.0
2017-Dec-03 06:22N 40°38' W 074°12'0 0.0
2017-Dec-03 05:58N 40°38' W 074°12'0 0.0
2017-Dec-03 05:28N 40°38' W 074°12'0 0.0
2017-Dec-03 04:52N 40°38' W 074°12'0 0.0
2017-Dec-03 04:16N 40°38' W 074°12'0 0.0
2017-Dec-03 03:46N 40°38' W 074°12'0 0.0
2017-Dec-03 03:22N 40°38' W 074°12'0 0.0
2017-Dec-03 02:10N 40°38' W 074°12'0 0.0
2017-Dec-03 01:46N 40°38' W 074°12'0 0.0
2017-Dec-03 01:16N 40°38' W 074°12'0 0.0
2017-Dec-03 00:58N 40°38' W 074°12'0 0.0
2017-Dec-03 00:28N 40°38' W 074°12'0 0.0
2017-Dec-02 23:58N 40°38' W 074°12'0 0.0
2017-Dec-02 23:19N 40°38' W 074°12'0 0.0
2017-Dec-02 22:55N 40°38' W 074°12'0 0.0
2017-Dec-02 21:46N 40°38' W 074°12'0 0.0
2017-Dec-02 21:04N 40°38' W 074°12'0 0.0
2017-Dec-02 20:58N 40°38' W 074°12'0 0.0
2017-Dec-02 20:22N 40°38' W 074°12'0 0.0
2017-Dec-02 19:52N 40°38' W 074°12'0 0.0
2017-Dec-02 18:55N 40°38' W 074°12'0 0.0
2017-Dec-02 18:25N 40°38' W 074°12'0 0.0
2017-Dec-02 17:52N 40°38' W 074°12'0 0.0
2017-Dec-02 16:58N 40°38' W 074°12'0 0.0
2017-Dec-02 16:28N 40°38' W 074°12'0 0.0
2017-Dec-02 15:58N 40°38' W 074°12'0 0.0
2017-Dec-02 15:16N 40°38' W 074°12'0 0.0
2017-Dec-02 14:46N 40°38' W 074°12'0 0.0
2017-Dec-02 14:16N 40°38' W 074°12'0 0.0
2017-Dec-02 13:52N 40°38' W 074°12'0 0.0
2017-Dec-02 13:10N 40°38' W 074°12'0 0.0
2017-Dec-02 12:58N 40°38' W 074°12'0 0.0
2017-Dec-02 12:22N 40°38' W 074°12'0 0.0
2017-Dec-02 11:19N 40°38' W 074°12'0 0.0
2017-Dec-02 10:55N 40°38' W 074°12'0 0.0
2017-Dec-02 10:28N 40°38' W 074°12'0 0.0
2017-Dec-02 09:55N 40°38' W 074°12'0 0.0
2017-Dec-02 09:28N 40°38' W 074°12'0 0.0
2017-Dec-02 08:58N 40°38' W 074°12'0 0.0
2017-Dec-02 08:28N 40°38' W 074°12'0 0.0
2017-Dec-02 08:00N 40°38' W 074°12'0 0.7
2017-Dec-02 07:31N 40°38' W 074°12'2 3.6
2017-Dec-02 07:00N 40°39' W 074°10'4 7.2
2017-Dec-02 06:30N 40°39' W 074°05'2 4.7
2017-Dec-02 06:00N 40°37' W 074°03'2 4.8
2017-Dec-02 05:30N 40°35' W 074°01'0 0.1
2017-Dec-02 04:46N 40°35' W 074°01'0 0.0
2017-Dec-02 04:28N 40°35' W 074°01'0 0.0
2017-Dec-02 03:58N 40°35' W 074°01'0 0.0
2017-Dec-02 03:19N 40°35' W 074°01'0 0.0
2017-Dec-02 02:55N 40°35' W 074°01'0 0.0
2017-Dec-02 02:28N 40°35' W 074°01'0 0.0
2017-Dec-02 01:46N 40°35' W 074°01'0 0.0
2017-Dec-02 01:28N 40°35' W 074°01'0 0.0
2017-Dec-02 00:58N 40°35' W 074°01'0 0.0
2017-Dec-02 00:28N 40°35' W 074°01'0 0.0
2017-Dec-01 23:55N 40°35' W 074°01'0 0.1
2017-Dec-01 23:28N 40°35' W 074°01'0 0.0
2017-Dec-01 22:58N 40°35' W 074°01'0 0.0
2017-Dec-01 22:22N 40°35' W 074°01'0 0.0
2017-Dec-01 21:49N 40°35' W 074°01'0 0.1
2017-Dec-01 21:28N 40°35' W 074°01'0 0.1
2017-Dec-01 20:16N 40°35' W 074°01'0 0.1
2017-Dec-01 19:49N 40°35' W 074°01'0 0.0
2017-Dec-01 19:19N 40°35' W 074°01'0 0.0
2017-Dec-01 18:52N 40°35' W 074°01'0 0.0
2017-Dec-01 18:28N 40°35' W 074°01'0 0.0
2017-Dec-01 17:52N 40°35' W 074°01'0 0.0
2017-Dec-01 17:28N 40°35' W 074°01'0 0.0
2017-Dec-01 16:49N 40°35' W 074°01'  

Dump ship's entire track history